createdAt,value
2022-09-23T00:01:20.383Z,7.30
2022-09-23T00:03:49.411Z,7.30
2022-09-23T00:06:22.248Z,7.20
2022-09-23T00:08:50.511Z,7.20
2022-09-23T00:11:21.495Z,7.10
2022-09-23T00:13:51.281Z,7.00
2022-09-23T00:16:22.189Z,7.00
2022-09-23T00:18:51.947Z,7.00
2022-09-23T00:21:20.950Z,6.90
2022-09-23T00:23:48.475Z,6.90
2022-09-23T00:26:19.178Z,6.90
2022-09-23T00:28:47.403Z,6.90
2022-09-23T00:31:20.634Z,6.90
2022-09-23T00:33:48.010Z,6.90
2022-09-23T00:36:16.436Z,6.90
2022-09-23T00:38:46.553Z,7.00
2022-09-23T00:41:16.387Z,7.00
2022-09-23T00:43:54.183Z,6.90
2022-09-23T00:46:29.076Z,6.90
2022-09-23T00:49:02.465Z,6.90
2022-09-23T00:51:35.072Z,6.90
2022-09-23T00:54:03.293Z,6.90
2022-09-23T00:56:31.718Z,7.00
2022-09-23T00:58:59.824Z,7.00
2022-09-23T01:01:26.976Z,7.00
2022-09-23T01:03:55.388Z,7.00
2022-09-23T01:06:22.338Z,7.00
2022-09-23T01:08:50.277Z,7.00
2022-09-23T01:11:20.512Z,7.00
2022-09-23T01:14:12.032Z,7.00
2022-09-23T01:17:01.251Z,7.00
2022-09-23T01:19:36.079Z,7.00
2022-09-23T01:22:18.111Z,7.00
2022-09-23T01:24:53.761Z,7.00
2022-09-23T01:27:41.606Z,7.00
2022-09-23T01:30:44.131Z,7.00
2022-09-23T01:33:34.808Z,7.00
2022-09-23T01:36:07.699Z,7.00
2022-09-23T01:38:38.186Z,7.00
2022-09-23T01:41:14.251Z,7.00
2022-09-23T01:44:08.966Z,7.00
2022-09-23T01:46:50.757Z,7.10
2022-09-23T01:49:22.261Z,7.10
2022-09-23T01:51:59.902Z,7.10
2022-09-23T01:54:53.319Z,7.10
2022-09-23T01:57:41.536Z,7.10
2022-09-23T02:00:17.643Z,7.00
2022-09-23T02:03:14.451Z,6.90
2022-09-23T02:06:05.379Z,6.80
2022-09-23T02:08:41.787Z,6.90
2022-09-23T02:11:15.634Z,6.90
2022-09-23T02:13:55.093Z,6.80
2022-09-23T02:16:34.098Z,6.90
2022-09-23T02:19:27.294Z,6.80
2022-09-23T02:22:20.837Z,6.80
2022-09-23T02:24:49.690Z,6.80
2022-09-23T02:27:36.411Z,6.80
2022-09-23T02:30:20.704Z,6.80
2022-09-23T02:33:05.837Z,6.70
2022-09-23T02:35:44.207Z,6.70
2022-09-23T02:38:37.126Z,6.70
2022-09-23T02:41:28.168Z,6.70
2022-09-23T02:44:07.857Z,6.70
2022-09-23T02:46:37.332Z,6.80
2022-09-23T02:49:17.677Z,6.80
2022-09-23T02:51:45.600Z,6.90
2022-09-23T02:54:17.171Z,6.90
2022-09-23T02:56:44.169Z,6.90
2022-09-23T02:59:12.681Z,6.80
2022-09-23T03:02:01.180Z,6.90
2022-09-23T03:04:50.989Z,6.80
2022-09-23T03:07:25.116Z,6.80
2022-09-23T03:09:55.195Z,6.80
2022-09-23T03:12:36.466Z,6.80
2022-09-23T03:15:31.221Z,6.80
2022-09-23T03:18:12.191Z,6.70
2022-09-23T03:20:56.261Z,6.70
2022-09-23T03:23:29.111Z,6.70
2022-09-23T03:25:59.401Z,6.70
2022-09-23T03:28:29.125Z,6.60
2022-09-23T03:31:00.252Z,6.50
2022-09-23T03:33:28.959Z,6.50
2022-09-23T03:36:23.381Z,6.40
2022-09-23T03:38:54.433Z,6.50
2022-09-23T03:41:30.423Z,6.50
2022-09-23T03:44:00.077Z,6.50
2022-09-23T03:46:28.725Z,6.40
2022-09-23T03:49:14.839Z,6.40
2022-09-23T03:51:44.697Z,6.40
2022-09-23T03:54:12.590Z,6.40
2022-09-23T03:56:39.535Z,6.50
2022-09-23T03:59:06.522Z,6.40
2022-09-23T04:01:33.443Z,6.40
2022-09-23T04:04:00.622Z,6.40
2022-09-23T04:06:27.578Z,6.30
2022-09-23T04:08:54.516Z,6.40
2022-09-23T04:11:21.883Z,6.30
2022-09-23T04:13:48.939Z,6.30
2022-09-23T04:16:16.072Z,6.30
2022-09-23T04:18:43.070Z,6.30
2022-09-23T04:21:10.032Z,6.20
2022-09-23T04:23:37.043Z,6.20
2022-09-23T04:26:05.830Z,6.20
2022-09-23T04:28:33.327Z,6.30
2022-09-23T04:31:04.047Z,6.30
2022-09-23T04:33:31.112Z,6.40
2022-09-23T04:35:58.114Z,6.40
2022-09-23T04:38:25.151Z,6.40
2022-09-23T04:40:52.264Z,6.40
2022-09-23T04:43:23.476Z,6.40
2022-09-23T04:46:01.690Z,6.40
2022-09-23T04:48:28.891Z,6.40
2022-09-23T04:51:02.685Z,6.50
2022-09-23T04:53:29.660Z,6.50
2022-09-23T04:56:11.453Z,6.40
2022-09-23T04:58:39.826Z,6.50
2022-09-23T05:01:16.397Z,6.40
2022-09-23T05:03:44.716Z,6.40
2022-09-23T05:06:16.412Z,6.40
2022-09-23T05:08:49.437Z,6.50
2022-09-23T05:11:16.480Z,6.40
2022-09-23T05:13:43.420Z,6.50
2022-09-23T05:16:12.614Z,6.50
2022-09-23T05:18:42.894Z,6.40
2022-09-23T05:21:15.832Z,6.50
2022-09-23T05:23:46.938Z,6.50
2022-09-23T05:26:14.093Z,6.50
2022-09-23T05:28:41.288Z,6.50
2022-09-23T05:31:20.125Z,6.50
2022-09-23T05:33:57.699Z,6.50
2022-09-23T05:36:26.637Z,6.50
2022-09-23T05:38:56.635Z,6.50
2022-09-23T05:41:24.542Z,6.60
2022-09-23T05:43:53.130Z,6.60
2022-09-23T05:46:23.407Z,6.70
2022-09-23T05:48:51.627Z,6.70
2022-09-23T05:51:20.937Z,6.80
2022-09-23T05:53:48.820Z,6.90
2022-09-23T05:56:18.519Z,6.90
2022-09-23T05:58:45.743Z,7.00
2022-09-23T06:01:25.167Z,6.90
2022-09-23T06:03:56.844Z,6.90
2022-09-23T06:06:34.561Z,7.00
2022-09-23T06:09:01.798Z,7.10
2022-09-23T06:11:33.335Z,7.10
2022-09-23T06:14:02.728Z,7.10
2022-09-23T06:16:33.386Z,7.20
2022-09-23T06:19:06.532Z,7.30
2022-09-23T06:21:37.450Z,7.30
2022-09-23T06:24:05.519Z,7.40
2022-09-23T06:26:36.458Z,7.40
2022-09-23T06:29:08.318Z,7.60
2022-09-23T06:31:35.328Z,7.60
2022-09-23T06:34:11.099Z,7.70
2022-09-23T06:36:44.895Z,7.80
2022-09-23T06:39:14.106Z,7.80
2022-09-23T06:41:41.459Z,7.80
2022-09-23T06:44:08.496Z,7.90
2022-09-23T06:46:37.086Z,8.00
2022-09-23T06:49:04.159Z,8.00
2022-09-23T06:51:31.219Z,8.00
2022-09-23T06:53:58.179Z,8.00
2022-09-23T06:56:25.206Z,8.00
2022-09-23T06:58:53.188Z,8.10
2022-09-23T07:01:20.354Z,8.10
2022-09-23T07:03:48.657Z,8.20
2022-09-23T07:06:17.266Z,8.20
2022-09-23T07:08:47.253Z,8.30
2022-09-23T07:11:15.897Z,8.40
2022-09-23T07:13:43.748Z,8.50
2022-09-23T07:16:12.043Z,8.60
2022-09-23T07:18:39.739Z,8.70
2022-09-23T07:21:15.687Z,8.80
2022-09-23T07:23:47.023Z,8.90
2022-09-23T07:26:15.870Z,9.10
2022-09-23T07:28:43.745Z,9.20
2022-09-23T07:31:13.180Z,9.30
2022-09-23T07:33:44.414Z,9.30
2022-09-23T07:36:18.351Z,9.40
2022-09-23T07:38:47.537Z,9.60
2022-09-23T07:41:18.035Z,9.70
2022-09-23T07:43:47.682Z,9.80
2022-09-23T07:46:17.694Z,10.00
2022-09-23T07:48:46.081Z,10.20
2022-09-23T07:51:26.780Z,10.20
2022-09-23T07:53:55.244Z,10.40
2022-09-23T07:56:25.920Z,10.50
2022-09-23T07:59:04.167Z,10.70
2022-09-23T08:01:40.624Z,10.80
2022-09-23T08:04:17.818Z,11.00
2022-09-23T08:06:50.298Z,11.10
2022-09-23T08:09:19.700Z,11.10
2022-09-23T08:11:47.244Z,11.20
2022-09-23T08:14:15.624Z,11.20
2022-09-23T08:16:44.219Z,11.40
2022-09-23T08:19:11.960Z,11.40
2022-09-23T08:21:40.632Z,11.50
2022-09-23T08:24:09.213Z,11.60
2022-09-23T08:26:36.697Z,11.60
2022-09-23T08:29:04.631Z,11.70
2022-09-23T08:31:31.723Z,11.80
2022-09-23T08:33:59.289Z,12.00
2022-09-23T08:36:27.063Z,12.10
2022-09-23T08:38:54.454Z,12.10
2022-09-23T08:41:39.546Z,12.30
2022-09-23T08:44:25.486Z,12.40
2022-09-23T08:47:20.059Z,12.60
2022-09-23T08:50:11.696Z,12.80
2022-09-23T08:52:43.201Z,13.00
2022-09-23T08:55:15.560Z,13.10
2022-09-23T08:58:24.366Z,13.20
2022-09-23T09:01:29.846Z,13.40
2022-09-23T09:04:01.392Z,13.60
2022-09-23T09:06:52.352Z,13.80
2022-09-23T09:09:32.328Z,13.90
2022-09-23T09:12:23.887Z,14.00
2022-09-23T09:15:11.373Z,14.10
2022-09-23T09:17:39.999Z,14.30
2022-09-23T09:20:19.071Z,14.50
2022-09-23T09:22:54.736Z,14.60
2022-09-23T09:25:49.649Z,14.70
2022-09-23T09:28:35.991Z,14.90
2022-09-23T09:31:25.836Z,15.10
2022-09-23T09:34:06.321Z,15.20
2022-09-23T09:36:37.801Z,15.30
2022-09-23T09:39:05.118Z,15.40
2022-09-23T09:41:32.164Z,15.50
2022-09-23T09:44:03.692Z,15.60
2022-09-23T09:47:09.061Z,15.60
2022-09-23T09:49:51.896Z,15.60
2022-09-23T09:52:30.001Z,15.80
2022-09-23T09:55:24.355Z,15.90
2022-09-23T09:57:54.412Z,16.00
2022-09-23T10:00:27.902Z,16.10
2022-09-23T10:03:14.832Z,16.10
2022-09-23T10:05:47.389Z,16.10
2022-09-23T10:08:20.036Z,16.30
2022-09-23T10:10:59.732Z,16.40
2022-09-23T10:13:29.514Z,16.60
2022-09-23T10:16:02.155Z,16.60
2022-09-23T10:18:39.359Z,16.60
2022-09-23T10:21:18.030Z,16.80
2022-09-23T10:23:52.230Z,16.80
2022-09-23T10:26:27.532Z,16.90
2022-09-23T10:29:01.359Z,17.00
2022-09-23T10:31:33.405Z,17.10
2022-09-23T10:34:24.178Z,17.10
2022-09-23T10:37:15.285Z,17.30
2022-09-23T10:40:00.787Z,17.30
2022-09-23T10:42:51.984Z,17.30
2022-09-23T10:45:44.861Z,17.40
2022-09-23T10:48:27.366Z,17.50
2022-09-23T10:50:59.563Z,17.60
2022-09-23T10:53:59.886Z,17.70
2022-09-23T10:56:29.729Z,17.90
2022-09-23T10:59:18.918Z,18.00
2022-09-23T11:01:58.363Z,18.10
2022-09-23T11:04:52.949Z,18.10
2022-09-23T11:07:33.802Z,18.10
2022-09-23T11:10:23.332Z,18.20
2022-09-23T11:12:59.390Z,18.30
2022-09-23T11:15:36.020Z,18.30
2022-09-23T11:18:21.601Z,18.40
2022-09-23T11:20:56.032Z,18.40
2022-09-23T11:23:32.346Z,18.40
2022-09-23T11:26:33.348Z,18.50
2022-09-23T11:29:22.461Z,18.60
2022-09-23T11:31:57.381Z,18.60
2022-09-23T11:34:52.733Z,18.60
2022-09-23T11:37:27.365Z,18.70
2022-09-23T11:40:03.385Z,18.90
2022-09-23T11:42:40.648Z,18.90
2022-09-23T11:45:16.872Z,18.90
2022-09-23T11:47:54.862Z,18.90
2022-09-23T11:50:33.927Z,18.90
2022-09-23T11:53:45.962Z,18.90
2022-09-23T11:56:34.829Z,18.90
2022-09-23T11:59:21.264Z,18.90
2022-09-23T12:01:56.957Z,18.90
2022-09-23T12:05:03.225Z,19.00
2022-09-23T12:07:57.028Z,19.00
2022-09-23T12:11:03.536Z,19.10
2022-09-23T12:13:36.797Z,19.20
2022-09-23T12:16:15.555Z,19.30
2022-09-23T12:18:59.865Z,19.30
2022-09-23T12:21:50.609Z,19.30
2022-09-23T12:24:44.878Z,19.30
2022-09-23T12:27:24.361Z,19.30
2022-09-23T12:30:02.312Z,19.40
2022-09-23T12:32:30.081Z,19.50
2022-09-23T12:34:57.212Z,19.50
2022-09-23T12:37:37.429Z,19.60
2022-09-23T12:40:23.795Z,19.70
2022-09-23T12:42:51.913Z,19.80
2022-09-23T12:45:32.147Z,19.80
2022-09-23T12:48:20.219Z,19.80
2022-09-23T12:50:56.003Z,19.70
2022-09-23T12:53:35.152Z,19.80
2022-09-23T12:56:15.882Z,19.70
2022-09-23T12:58:42.783Z,19.70
2022-09-23T13:01:17.486Z,19.70
2022-09-23T13:04:09.985Z,19.80
2022-09-23T13:06:42.598Z,19.80
2022-09-23T13:09:19.131Z,19.90
2022-09-23T13:11:48.161Z,19.90
2022-09-23T13:14:27.358Z,19.90
2022-09-23T13:16:58.470Z,19.80
2022-09-23T13:19:28.694Z,20.00
2022-09-23T13:22:07.913Z,20.00
2022-09-23T13:24:45.213Z,19.90
2022-09-23T13:27:12.415Z,20.00
2022-09-23T13:30:02.732Z,19.90
2022-09-23T13:32:33.823Z,19.80
2022-09-23T13:35:05.663Z,19.80
2022-09-23T13:37:40.218Z,19.80
2022-09-23T13:40:24.094Z,19.90
2022-09-23T13:43:02.020Z,20.00
2022-09-23T13:45:34.075Z,20.00
2022-09-23T13:48:06.231Z,20.10
2022-09-23T13:50:38.755Z,20.10
2022-09-23T13:53:13.412Z,20.10
2022-09-23T13:55:41.476Z,20.20
2022-09-23T13:58:21.551Z,20.10
2022-09-23T14:00:49.618Z,20.00
2022-09-23T14:03:36.207Z,20.00
2022-09-23T14:06:11.515Z,20.00
2022-09-23T14:08:47.379Z,20.10
2022-09-23T14:11:19.385Z,20.10
2022-09-23T14:13:50.309Z,20.00
2022-09-23T14:16:18.266Z,20.10
2022-09-23T14:18:48.523Z,20.10
2022-09-23T14:21:36.950Z,20.10
2022-09-23T14:24:20.999Z,20.10
2022-09-23T14:26:52.510Z,20.00
2022-09-23T14:29:24.529Z,19.90
2022-09-23T14:31:57.377Z,19.90
2022-09-23T14:34:50.779Z,19.80
2022-09-23T14:37:39.292Z,19.90
2022-09-23T14:40:12.912Z,19.70
2022-09-23T14:42:51.537Z,19.70
2022-09-23T14:45:25.822Z,19.70
2022-09-23T14:48:02.295Z,19.70
2022-09-23T14:50:37.119Z,19.70
2022-09-23T14:53:05.875Z,19.60
2022-09-23T14:55:32.876Z,19.60
2022-09-23T14:58:13.817Z,19.60
2022-09-23T15:00:55.849Z,19.50
2022-09-23T15:03:23.317Z,19.50
2022-09-23T15:05:58.007Z,19.40
2022-09-23T15:08:27.772Z,19.30
2022-09-23T15:10:55.057Z,19.20
2022-09-23T15:13:27.849Z,19.20
2022-09-23T15:15:56.381Z,19.20
2022-09-23T15:18:33.078Z,19.20
2022-09-23T15:21:10.094Z,19.20
2022-09-23T15:23:46.335Z,19.10
2022-09-23T15:26:19.512Z,19.00
2022-09-23T15:28:48.032Z,18.90
2022-09-23T15:31:17.007Z,18.80
2022-09-23T15:33:48.472Z,18.70
2022-09-23T15:36:27.892Z,18.60
2022-09-23T15:38:57.195Z,18.50
2022-09-23T15:41:24.542Z,18.40
2022-09-23T15:43:51.644Z,18.30
2022-09-23T15:46:22.578Z,18.20
2022-09-23T15:49:09.119Z,18.00
2022-09-23T15:51:37.624Z,17.90
2022-09-23T15:54:10.095Z,17.80
2022-09-23T15:56:37.127Z,17.70
2022-09-23T15:59:04.171Z,17.60
2022-09-23T16:01:34.226Z,17.40
2022-09-23T16:04:02.154Z,17.30
2022-09-23T16:06:29.170Z,17.10
2022-09-23T16:08:56.359Z,17.00
2022-09-23T16:11:31.904Z,16.90
2022-09-23T16:14:00.777Z,16.80
2022-09-23T16:16:28.179Z,16.70
2022-09-23T16:18:55.314Z,16.50
2022-09-23T16:21:25.280Z,16.50
2022-09-23T16:23:53.509Z,16.40
2022-09-23T16:26:21.975Z,16.20
2022-09-23T16:28:51.167Z,16.10
2022-09-23T16:31:18.676Z,16.00
2022-09-23T16:33:46.913Z,15.90
2022-09-23T16:36:29.052Z,15.80
2022-09-23T16:38:56.848Z,15.70
2022-09-23T16:41:25.720Z,15.60
2022-09-23T16:43:53.839Z,15.50
2022-09-23T16:46:21.373Z,15.40
2022-09-23T16:48:52.849Z,15.30
2022-09-23T16:51:26.650Z,15.20
2022-09-23T16:53:55.908Z,15.10
2022-09-23T16:56:28.379Z,15.00
2022-09-23T16:58:56.473Z,14.90
2022-09-23T17:01:44.208Z,14.80
2022-09-23T17:04:12.369Z,14.70
2022-09-23T17:06:44.410Z,14.60
2022-09-23T17:09:12.105Z,14.60
2022-09-23T17:11:39.118Z,14.50
2022-09-23T17:14:07.485Z,14.40
2022-09-23T17:16:35.277Z,14.30
2022-09-23T17:19:10.656Z,14.20
2022-09-23T17:21:38.185Z,14.10
2022-09-23T17:24:06.053Z,14.10
2022-09-23T17:26:33.113Z,14.00
2022-09-23T17:29:01.744Z,13.90
2022-09-23T17:31:28.874Z,13.80
2022-09-23T17:33:56.343Z,13.70
2022-09-23T17:36:23.373Z,13.70
2022-09-23T17:38:53.762Z,13.60
2022-09-23T17:41:21.507Z,13.50
2022-09-23T17:43:53.567Z,13.50
2022-09-23T17:46:20.669Z,13.40
2022-09-23T17:48:47.707Z,13.30
2022-09-23T17:51:20.225Z,13.30
2022-09-23T17:53:48.864Z,13.20
2022-09-23T17:56:18.321Z,13.20
2022-09-23T17:58:46.548Z,13.10
2022-09-23T18:01:17.221Z,13.00
2022-09-23T18:03:44.303Z,13.00
2022-09-23T18:06:12.803Z,12.90
2022-09-23T18:08:41.643Z,12.90
2022-09-23T18:11:19.043Z,12.90
2022-09-23T18:14:06.089Z,12.80
2022-09-23T18:16:39.643Z,12.70
2022-09-23T18:19:10.199Z,12.70
2022-09-23T18:21:40.583Z,12.60
2022-09-23T18:26:59.996Z,12.50
2022-09-23T18:29:28.223Z,12.50
2022-09-23T18:31:55.296Z,12.40
2022-09-23T18:34:22.505Z,12.30
2022-09-23T18:36:49.651Z,12.30
2022-09-23T18:39:17.360Z,12.20
2022-09-23T18:41:44.272Z,12.20
2022-09-23T18:44:11.410Z,12.20
2022-09-23T18:46:38.451Z,12.10
2022-09-23T18:49:24.287Z,12.10
2022-09-23T18:51:54.961Z,12.00
2022-09-23T18:54:23.578Z,12.00
2022-09-23T18:56:52.809Z,11.90
2022-09-23T18:59:25.033Z,11.90
2022-09-23T19:01:55.702Z,11.80
2022-09-23T19:04:25.042Z,11.80
2022-09-23T19:06:52.198Z,11.70
2022-09-23T19:09:19.229Z,11.70
2022-09-23T19:11:46.372Z,11.60
2022-09-23T19:14:14.162Z,11.60
2022-09-23T19:16:42.193Z,11.50
2022-09-23T19:19:09.850Z,11.50
2022-09-23T19:21:37.499Z,11.40
2022-09-23T19:24:07.535Z,11.40
2022-09-23T19:26:39.298Z,11.40
2022-09-23T19:29:12.710Z,11.30
2022-09-23T19:31:40.929Z,11.30
2022-09-23T19:34:13.962Z,11.20
2022-09-23T19:36:43.887Z,11.20
2022-09-23T19:39:19.167Z,11.10
2022-09-23T19:41:47.243Z,11.10
2022-09-23T19:44:14.549Z,11.10
2022-09-23T19:46:45.426Z,11.00
2022-09-23T19:49:13.457Z,11.00
2022-09-23T19:51:40.644Z,11.00
2022-09-23T19:54:09.337Z,11.00
2022-09-23T19:56:36.820Z,11.00
2022-09-23T19:59:06.157Z,10.90
2022-09-23T20:01:34.030Z,10.90
2022-09-23T20:04:01.448Z,10.90
2022-09-23T20:06:34.258Z,10.90
2022-09-23T20:09:01.926Z,10.80
2022-09-23T20:11:30.056Z,10.80
2022-09-23T20:14:01.903Z,10.80
2022-09-23T20:16:32.504Z,10.80
2022-09-23T20:19:01.203Z,10.70
2022-09-23T20:21:29.670Z,10.70
2022-09-23T20:23:58.049Z,10.70
2022-09-23T20:26:44.066Z,10.60
2022-09-23T20:29:11.442Z,10.60
2022-09-23T20:31:40.582Z,10.50
2022-09-23T20:34:10.702Z,10.50
2022-09-23T20:36:40.240Z,10.40
2022-09-23T20:39:07.362Z,10.40
2022-09-23T20:41:38.027Z,10.40
2022-09-23T20:44:12.935Z,10.40
2022-09-23T20:46:47.542Z,10.40
2022-09-23T20:49:16.603Z,10.40
2022-09-23T20:51:43.635Z,10.40
2022-09-23T20:54:12.160Z,10.30
2022-09-23T20:56:39.379Z,10.30
2022-09-23T20:59:06.441Z,10.30
2022-09-23T21:01:35.665Z,10.30
2022-09-23T21:04:09.079Z,10.20
2022-09-23T21:06:37.294Z,10.20
2022-09-23T21:09:06.194Z,10.20
2022-09-23T21:11:33.986Z,10.20
2022-09-23T21:14:02.234Z,10.10
2022-09-23T21:16:30.242Z,10.10
2022-09-23T21:18:57.921Z,10.00
2022-09-23T21:21:24.907Z,10.00
2022-09-23T21:23:52.361Z,10.00
2022-09-23T21:26:23.426Z,10.00
2022-09-23T21:28:53.247Z,9.90
2022-09-23T21:31:34.116Z,9.90
2022-09-23T21:34:01.990Z,9.80
2022-09-23T21:36:34.727Z,9.80
2022-09-23T21:39:01.918Z,9.70
2022-09-23T21:41:29.123Z,9.70
2022-09-23T21:43:56.783Z,9.70
2022-09-23T21:46:25.332Z,9.60
2022-09-23T21:48:55.396Z,9.60
2022-09-23T21:51:28.063Z,9.60
2022-09-23T21:53:56.963Z,9.50
2022-09-23T21:56:28.204Z,9.50
2022-09-23T21:58:56.954Z,9.40
2022-09-23T22:01:25.297Z,9.40
2022-09-23T22:03:56.816Z,9.40
2022-09-23T22:06:28.968Z,9.30
2022-09-23T22:09:00.059Z,9.30
2022-09-23T22:11:48.462Z,9.20
2022-09-23T22:14:17.425Z,9.20
2022-09-23T22:16:44.950Z,9.20
2022-09-23T22:19:13.786Z,9.20
2022-09-23T22:21:42.704Z,9.20
2022-09-23T22:24:11.225Z,9.20
2022-09-23T22:26:40.972Z,9.20
2022-09-23T22:29:28.391Z,9.20
2022-09-23T22:32:13.624Z,9.30
2022-09-23T22:34:51.178Z,9.20
2022-09-23T22:37:21.638Z,9.20
2022-09-23T22:39:48.802Z,9.20
2022-09-23T22:42:16.326Z,9.20
2022-09-23T22:44:43.269Z,9.20
2022-09-23T22:47:11.086Z,9.10
2022-09-23T22:49:38.123Z,9.10
2022-09-23T22:52:09.704Z,9.10
2022-09-23T22:54:37.022Z,9.10
2022-09-23T22:57:05.279Z,9.10
2022-09-23T22:59:32.377Z,9.10
2022-09-23T23:02:03.193Z,9.10
2022-09-23T23:04:31.174Z,9.10
2022-09-23T23:07:03.231Z,9.00
2022-09-23T23:09:30.194Z,9.00
2022-09-23T23:11:57.190Z,9.00
2022-09-23T23:14:24.550Z,9.00
2022-09-23T23:16:51.565Z,9.00
2022-09-23T23:19:19.332Z,9.00
2022-09-23T23:21:46.875Z,8.90
2022-09-23T23:24:19.645Z,8.90
2022-09-23T23:26:47.115Z,8.90
2022-09-23T23:29:16.597Z,8.80
2022-09-23T23:31:44.649Z,8.70
2022-09-23T23:34:14.493Z,8.70
2022-09-23T23:36:41.604Z,8.70
2022-09-23T23:39:09.497Z,8.70
2022-09-23T23:41:36.553Z,8.60
2022-09-23T23:44:03.949Z,8.60
2022-09-23T23:46:32.795Z,8.50
2022-09-23T23:49:00.396Z,8.50
2022-09-23T23:51:27.984Z,8.50
2022-09-23T23:53:55.651Z,8.40
2022-09-23T23:56:24.703Z,8.30
2022-09-23T23:58:58.824Z,8.30
